Time;durP1;ratioP1;P1;durP2;ratioP2;P2;SDS_P1;SDS_P2;PMS_P1;PMS_P2;Temp;Humidity;BMP_temperature;BMP_pressure;BME280_temperature;BME280_humidity;BME280_pressure;Samples;Min_cycle;Max_cycle;Signal;HPM_P1;HPM_P2
2023/03/02 00:02:00;;;;;;;70.97;40.47;;;5.30;73.30;;;;;;5033816;28;20025;-69
2023/03/02 00:04:31;;;;;;;72.13;39.72;;;5.30;73.10;;;;;;5022806;28;20034;-67
2023/03/02 00:07:01;;;;;;;72.90;41.95;;;5.30;73.00;;;;;;5014441;28;20021;-68
2023/03/02 00:09:28;;;;;;;68.88;40.22;;;5.30;73.20;;;;;;5013672;28;20490;-67
2023/03/02 00:11:54;;;;;;;72.30;41.58;;;5.30;73.00;;;;;;5014218;28;20050;-67
2023/03/02 00:14:20;;;;;;;74.78;39.85;;;5.30;73.30;;;;;;5013805;28;20060;-67
2023/03/02 00:16:45;;;;;;;68.72;39.22;;;5.30;73.20;;;;;;5013364;28;20455;-67
2023/03/02 00:19:11;;;;;;;74.80;42.60;;;5.30;73.10;;;;;;5014105;28;20067;-67
2023/03/02 00:21:37;;;;;;;71.30;41.92;;;5.20;73.30;;;;;;5013071;28;20101;-67
2023/03/02 00:24:03;;;;;;;77.43;41.55;;;5.20;73.50;;;;;;5013823;28;20037;-67
2023/03/02 00:26:33;;;;;;;75.43;41.67;;;5.30;73.60;;;;;;5013539;28;20070;-68
2023/03/02 00:28:59;;;;;;;72.60;41.00;;;5.30;73.50;;;;;;5013479;28;20033;-67
2023/03/02 00:31:24;;;;;;;72.05;40.50;;;5.30;73.50;;;;;;5013536;28;20018;-67
2023/03/02 00:33:53;;;;;;;68.50;38.88;;;5.30;73.10;;;;;;5012839;28;20171;-67
2023/03/02 00:36:20;;;;;;;71.93;39.00;;;5.30;73.20;;;;;;5029273;28;20037;-67
2023/03/02 00:38:46;;;;;;;71.05;40.72;;;5.30;73.10;;;;;;5032569;28;20021;-66
2023/03/02 00:41:13;;;;;;;71.82;40.60;;;5.30;72.90;;;;;;5033183;28;20155;-70
2023/03/02 00:43:39;;;;;;;74.53;40.05;;;5.30;73.10;;;;;;5032690;28;20025;-68
2023/03/02 00:46:12;;;;;;;71.65;41.90;;;5.20;73.10;;;;;;5033179;28;20044;-67
2023/03/02 00:48:39;;;;;;;71.13;40.60;;;5.20;73.30;;;;;;5031902;28;20109;-67
2023/03/02 00:51:06;;;;;;;73.45;40.65;;;5.20;73.30;;;;;;5033010;28;20029;-69
2023/03/02 00:53:33;;;;;;;72.45;41.03;;;5.20;73.40;;;;;;5032722;28;20029;-70
2023/03/02 00:55:59;;;;;;;72.35;40.97;;;5.20;73.30;;;;;;5032964;28;20025;-68
2023/03/02 00:58:26;;;;;;;65.25;38.47;;;5.30;73.20;;;;;;5032929;28;20068;-67
2023/03/02 01:00:52;;;;;;;72.50;40.47;;;5.30;73.30;;;;;;5032539;28;20536;-68
2023/03/02 01:03:18;;;;;;;72.85;40.83;;;5.20;73.40;;;;;;5032912;28;20029;-68
2023/03/02 01:05:44;;;;;;;72.22;41.00;;;5.30;73.40;;;;;;5032486;28;20031;-67
2023/03/02 01:08:10;;;;;;;71.05;40.80;;;5.30;73.30;;;;;;5032898;28;20104;-67
2023/03/02 01:10:37;;;;;;;67.75;39.70;;;5.30;72.90;;;;;;5032116;28;20041;-66
2023/03/02 01:13:03;;;;;;;71.13;40.45;;;5.20;73.00;;;;;;5032823;28;20075;-67
2023/03/02 01:15:28;;;;;;;65.38;39.30;;;5.20;73.20;;;;;;5032743;28;20466;-67
2023/03/02 01:17:54;;;;;;;67.65;38.10;;;5.20;73.40;;;;;;5031889;28;20112;-66
2023/03/02 01:20:20;;;;;;;70.28;40.00;;;5.20;73.20;;;;;;5032803;28;20025;-66
2023/03/02 01:22:45;;;;;;;70.05;39.00;;;5.20;73.00;;;;;;5032582;28;20033;-66
2023/03/02 01:25:14;;;;;;;63.40;39.03;;;5.20;72.30;;;;;;5032606;28;20080;-66
2023/03/02 01:27:40;;;;;;;62.72;38.00;;;5.10;72.10;;;;;;5032355;28;20363;-67
2023/03/02 01:30:06;;;;;;;65.53;39.83;;;5.10;72.40;;;;;;5031149;28;20017;-67
2023/03/02 01:37:46;;;;;;;67.30;37.33;;;5.10;72.30;;;;;;5582459;22;20385;-68
2023/03/02 01:40:13;;;;;;;69.25;37.70;;;5.10;71.90;;;;;;5032603;28;20049;-68
2023/03/02 01:42:46;;;;;;;66.13;38.40;;;5.10;72.00;;;;;;5032325;28;20079;-67
2023/03/02 01:45:50;;;;;;;66.00;37.22;;;5.00;71.90;;;;;;5031759;28;20029;-67
2023/03/02 01:48:37;;;;;;;60.47;34.55;;;5.00;72.00;;;;;;5031750;28;20021;-70
2023/03/02 01:51:05;;;;;;;67.50;36.63;;;4.90;72.00;;;;;;5032096;28;20041;-67
2023/03/02 01:53:33;;;;;;;62.33;37.15;;;4.90;72.00;;;;;;5031375;28;20029;-68
2023/03/02 01:56:01;;;;;;;67.35;37.42;;;4.90;72.00;;;;;;5032023;28;20235;-67
2023/03/02 01:58:30;;;;;;;65.25;36.53;;;4.90;72.30;;;;;;5031348;28;20022;-68
2023/03/02 02:00:57;;;;;;;62.35;36.97;;;4.90;72.30;;;;;;5034054;28;20025;-68
2023/03/02 02:03:26;;;;;;;63.55;37.00;;;4.90;72.20;;;;;;5034845;28;20029;-68
2023/03/02 02:06:10;;;;;;;61.55;36.58;;;4.90;72.30;;;;;;5035440;28;20485;-68
2023/03/02 02:08:37;;;;;;;64.35;36.60;;;4.80;72.00;;;;;;5034983;28;20052;-68
2023/03/02 02:11:03;;;;;;;62.92;36.97;;;4.80;72.00;;;;;;5035265;28;20040;-67
2023/03/02 02:13:29;;;;;;;69.20;36.03;;;4.90;72.20;;;;;;5034387;28;20030;-66
2023/03/02 02:15:55;;;;;;;64.32;36.45;;;4.80;71.90;;;;;;5035062;28;20469;-68
2023/03/02 02:18:20;;;;;;;66.85;36.67;;;4.80;72.00;;;;;;5034995;28;20025;-67
2023/03/02 02:20:47;;;;;;;66.22;37.70;;;4.80;72.10;;;;;;5035135;28;20033;-67
2023/03/02 02:23:13;;;;;;;65.85;36.35;;;4.70;72.30;;;;;;5035142;28;20037;-68
2023/03/02 02:25:54;;;;;;;61.45;35.95;;;4.70;72.10;;;;;;5034875;28;20049;-68
2023/03/02 02:28:42;;;;;;;65.78;37.35;;;4.60;72.20;;;;;;5034734;28;20124;-69
2023/03/02 02:31:25;;;;;;;61.92;35.47;;;4.60;72.60;;;;;;5044321;28;20104;-68
2023/03/02 02:33:55;;;;;;;62.20;35.33;;;4.60;72.90;;;;;;5054969;28;20043;-67
2023/03/02 02:36:31;;;;;;;61.58;36.08;;;4.50;72.80;;;;;;5054466;28;20361;-69
2023/03/02 02:39:01;;;;;;;57.17;35.03;;;4.50;73.00;;;;;;5047557;28;20493;-68
2023/03/02 02:41:32;;;;;;;60.67;35.83;;;4.50;73.30;;;;;;5054645;28;20079;-68
2023/03/02 02:43:57;;;;;;;63.70;35.92;;;4.40;73.20;;;;;;5054981;28;20059;-68
2023/03/02 02:46:24;;;;;;;64.40;35.60;;;4.40;73.40;;;;;;5054135;28;20032;-69
2023/03/02 02:48:50;;;;;;;65.95;36.00;;;4.40;73.50;;;;;;5054633;28;20025;-68
2023/03/02 02:51:22;;;;;;;68.65;35.03;;;4.30;73.70;;;;;;5054684;28;20029;-67
2023/03/02 02:54:00;;;;;;;61.47;35.05;;;4.30;74.10;;;;;;5055008;28;20055;-67
2023/03/02 02:56:37;;;;;;;64.18;35.97;;;4.30;73.90;;;;;;5054270;28;20116;-68
2023/03/02 02:59:15;;;;;;;60.38;34.45;;;4.20;74.00;;;;;;5054415;28;20542;-68
2023/03/02 03:01:41;;;;;;;65.20;35.50;;;4.30;73.70;;;;;;5053956;28;20060;-67
2023/03/02 03:04:12;;;;;;;65.88;35.42;;;4.20;73.70;;;;;;5054055;28;20025;-67
2023/03/02 03:06:56;;;;;;;59.78;34.85;;;4.20;73.60;;;;;;5053551;28;20025;-66
2023/03/02 03:09:22;;;;;;;64.30;35.63;;;4.20;73.80;;;;;;5054179;28;20068;-69
2023/03/02 03:11:52;;;;;;;61.63;34.60;;;4.20;73.70;;;;;;5053365;28;20025;-68
2023/03/02 03:14:23;;;;;;;59.17;33.65;;;4.20;73.50;;;;;;5054098;28;20048;-68
2023/03/02 03:16:49;;;;;;;58.72;33.85;;;4.10;73.40;;;;;;5053845;28;20108;-68
2023/03/02 03:19:17;;;;;;;57.83;33.55;;;4.10;73.80;;;;;;5054020;28;20036;-68
2023/03/02 03:21:43;;;;;;;58.90;32.95;;;4.00;73.10;;;;;;5050475;28;20464;-65
2023/03/02 03:24:09;;;;;;;60.80;32.58;;;4.00;73.30;;;;;;5032754;28;20483;-67
2023/03/02 03:26:35;;;;;;;60.42;32.85;;;4.00;72.90;;;;;;5033618;28;20022;-67
2023/03/02 03:29:01;;;;;;;59.03;33.72;;;3.90;73.30;;;;;;5034124;28;20030;-67
2023/03/02 03:31:27;;;;;;;56.30;32.65;;;3.90;73.70;;;;;;5033395;28;20029;-67
2023/03/02 03:33:55;;;;;;;60.03;34.83;;;3.90;73.60;;;;;;5033977;28;20036;-67
2023/03/02 03:36:21;;;;;;;58.40;33.13;;;3.80;73.70;;;;;;5033672;28;20059;-67
2023/03/02 03:38:47;;;;;;;64.32;34.25;;;3.80;73.70;;;;;;5033457;28;20049;-67
2023/03/02 03:41:14;;;;;;;60.50;33.92;;;3.80;73.80;;;;;;5033803;28;20026;-67
2023/03/02 03:43:40;;;;;;;58.10;32.88;;;3.70;74.10;;;;;;5015674;28;20055;-68
2023/03/02 03:46:05;;;;;;;58.33;34.03;;;3.70;74.40;;;;;;5033700;28;20449;-67
2023/03/02 03:48:31;;;;;;;58.53;32.88;;;3.60;74.60;;;;;;5033277;28;20025;-67
2023/03/02 03:50:59;;;;;;;59.28;33.50;;;3.60;74.90;;;;;;5033654;28;20424;-67
2023/03/02 03:53:25;;;;;;;58.65;33.13;;;3.60;74.70;;;;;;5033477;28;20018;-67
2023/03/02 03:55:52;;;;;;;57.75;33.67;;;3.60;74.80;;;;;;5015454;28;20484;-67
2023/03/02 03:58:18;;;;;;;62.20;34.30;;;3.50;75.00;;;;;;5033442;28;20053;-67
2023/03/02 04:00:46;;;;;;;61.60;33.60;;;3.50;75.10;;;;;;5033153;28;20021;-68
2023/03/02 04:03:13;;;;;;;59.05;33.13;;;3.50;75.10;;;;;;5033091;28;20454;-67
2023/03/02 04:05:39;;;;;;;55.90;32.65;;;3.50;75.40;;;;;;5032831;28;20033;-67
2023/03/02 04:08:05;;;;;;;61.67;34.47;;;3.40;75.60;;;;;;5033106;28;20048;-67
2023/03/02 04:10:30;;;;;;;60.90;33.17;;;3.40;76.10;;;;;;5032511;28;20079;-68
2023/03/02 04:12:56;;;;;;;60.22;35.00;;;3.40;75.90;;;;;;5033178;28;20051;-67
2023/03/02 04:15:23;;;;;;;61.30;33.80;;;3.30;76.20;;;;;;5033174;28;20378;-67
2023/03/02 04:17:49;;;;;;;60.17;33.95;;;3.30;76.30;;;;;;5032505;28;20029;-67
2023/03/02 04:20:16;;;;;;;54.90;33.83;;;3.30;76.30;;;;;;5033008;28;20030;-68
2023/03/02 04:22:46;;;;;;;60.75;34.72;;;3.30;76.30;;;;;;5032085;28;20136;-68
2023/03/02 04:25:14;;;;;;;63.67;33.33;;;3.30;76.60;;;;;;5031907;28;20028;-68
2023/03/02 04:27:40;;;;;;;62.72;34.50;;;3.30;76.80;;;;;;5047415;28;20420;-67
2023/03/02 04:30:07;;;;;;;60.83;33.88;;;3.20;76.60;;;;;;5052831;28;20021;-68
2023/03/02 04:32:33;;;;;;;66.07;35.47;;;3.20;76.90;;;;;;5052109;28;20033;-68
2023/03/02 04:34:59;;;;;;;67.30;35.17;;;3.20;76.90;;;;;;5052329;28;20083;-67
2023/03/02 04:37:25;;;;;;;58.08;32.67;;;3.20;77.40;;;;;;5034443;28;20037;-68
2023/03/02 04:39:51;;;;;;;66.93;35.25;;;3.10;77.30;;;;;;5052376;28;20033;-68
2023/03/02 04:42:18;;;;;;;62.63;35.55;;;3.10;77.50;;;;;;5052682;28;20033;-66
2023/03/02 04:44:44;;;;;;;61.30;34.28;;;3.10;77.70;;;;;;5052302;28;20102;-66
2023/03/02 04:47:10;;;;;;;64.47;34.28;;;3.10;77.90;;;;;;5052588;28;20453;-66
2023/03/02 04:49:35;;;;;;;67.22;34.65;;;3.10;78.20;;;;;;5051701;28;20036;-68
2023/03/02 04:52:02;;;;;;;66.38;35.55;;;3.10;78.50;;;;;;5052504;28;20025;-68
2023/03/02 04:54:27;;;;;;;64.43;34.47;;;3.10;78.50;;;;;;5052279;28;20025;-68
2023/03/02 04:56:54;;;;;;;64.50;36.75;;;3.10;78.50;;;;;;5051888;28;20044;-68
2023/03/02 04:59:24;;;;;;;64.53;35.10;;;3.00;78.70;;;;;;5052313;28;20025;-67
2023/03/02 05:01:51;;;;;;;62.50;34.25;;;3.00;78.90;;;;;;5051804;28;20068;-67
2023/03/02 05:04:17;;;;;;;68.72;36.25;;;3.00;79.20;;;;;;5052635;28;20530;-66
2023/03/02 05:06:44;;;;;;;63.13;34.33;;;3.00;79.30;;;;;;5052104;28;20108;-68
2023/03/02 05:09:10;;;;;;;62.20;34.83;;;3.00;79.30;;;;;;5052263;28;20025;-68
2023/03/02 05:11:36;;;;;;;66.25;35.83;;;3.00;79.40;;;;;;5051849;28;20040;-68
2023/03/02 05:14:04;;;;;;;65.75;36.35;;;3.00;79.50;;;;;;5052184;28;20037;-68
2023/03/02 05:16:33;;;;;;;67.20;37.95;;;3.00;79.70;;;;;;5052196;28;20029;-67
2023/03/02 05:19:00;;;;;;;64.18;35.38;;;3.00;80.50;;;;;;5051725;28;20036;-68
2023/03/02 05:21:26;;;;;;;65.10;36.25;;;3.00;80.10;;;;;;5052212;28;20075;-68
2023/03/02 05:23:52;;;;;;;61.75;36.63;;;2.90;80.40;;;;;;5051527;28;20032;-68
2023/03/02 05:26:17;;;;;;;67.68;36.70;;;2.90;80.80;;;;;;5052425;28;20090;-68
2023/03/02 05:28:44;;;;;;;69.32;36.92;;;3.00;81.60;;;;;;5037790;28;20057;-68
2023/03/02 05:31:17;;;;;;;71.03;37.45;;;2.90;81.50;;;;;;5032193;28;20025;-68
2023/03/02 05:33:43;;;;;;;73.32;36.72;;;2.90;81.40;;;;;;5031691;28;20047;-68
2023/03/02 05:36:09;;;;;;;66.68;36.97;;;2.90;82.00;;;;;;5035078;28;20029;-68
2023/03/02 05:38:35;;;;;;;68.60;38.00;;;2.90;82.30;;;;;;5035813;28;20504;-69
2023/03/02 05:41:01;;;;;;;64.10;37.80;;;2.90;82.70;;;;;;5035905;28;20437;-68
2023/03/02 05:43:27;;;;;;;72.28;38.60;;;2.90;82.70;;;;;;5035682;28;20359;-68
2023/03/02 05:45:54;;;;;;;73.00;38.47;;;2.90;83.20;;;;;;5035232;28;20167;-68
2023/03/02 05:48:20;;;;;;;66.30;36.75;;;2.90;83.70;;;;;;5035894;28;20460;-68
2023/03/02 05:50:46;;;;;;;65.55;38.60;;;2.90;84.00;;;;;;5035358;28;20047;-68
2023/03/02 05:53:11;;;;;;;80.63;39.17;;;2.90;84.40;;;;;;5036024;28;20100;-68
2023/03/02 05:55:37;;;;;;;68.03;36.10;;;2.90;85.00;;;;;;5035316;28;20172;-69
2023/03/02 05:58:10;;;;;;;68.28;37.58;;;2.90;84.70;;;;;;5035707;28;20025;-68
2023/03/02 06:00:36;;;;;;;67.28;38.40;;;2.90;85.00;;;;;;5035421;28;20052;-69
2023/03/02 06:03:01;;;;;;;67.60;38.38;;;2.90;85.20;;;;;;5034978;28;20021;-67
2023/03/02 06:05:27;;;;;;;69.15;37.60;;;3.00;85.00;;;;;;5035320;28;20521;-68
2023/03/02 06:07:53;;;;;;;65.72;36.67;;;3.00;84.90;;;;;;5034597;28;20068;-68
2023/03/02 06:10:19;;;;;;;66.85;37.60;;;3.00;84.80;;;;;;5035197;28;20061;-68
2023/03/02 06:12:44;;;;;;;74.22;37.88;;;3.10;84.90;;;;;;5034777;28;20061;-68
2023/03/02 06:15:11;;;;;;;69.90;38.00;;;3.10;84.80;;;;;;5046946;28;20049;-68
2023/03/02 06:17:37;;;;;;;66.75;37.28;;;3.10;83.80;;;;;;5054853;28;20028;-69
2023/03/02 06:20:09;;;;;;;67.65;36.97;;;3.10;84.20;;;;;;5054920;28;20118;-68
2023/03/02 06:22:37;;;;;;;72.60;39.30;;;3.20;84.10;;;;;;5055184;28;20063;-68
2023/03/02 06:25:03;;;;;;;69.32;38.17;;;3.20;84.20;;;;;;5054697;28;20036;-68
2023/03/02 06:27:29;;;;;;;66.85;37.47;;;3.20;84.30;;;;;;5055288;28;20029;-68
2023/03/02 06:29:54;;;;;;;64.38;37.60;;;3.20;83.60;;;;;;5054659;28;20098;-68
2023/03/02 06:32:20;;;;;;;67.05;36.45;;;3.30;83.30;;;;;;5054975;28;20024;-68
2023/03/02 06:34:46;;;;;;;67.65;36.53;;;3.40;82.70;;;;;;5053823;28;20043;-67
2023/03/02 06:37:11;;;;;;;68.22;37.13;;;3.40;82.70;;;;;;5054517;28;20025;-67
2023/03/02 06:39:37;;;;;;;68.97;36.10;;;3.50;81.60;;;;;;5055003;28;20045;-67
2023/03/02 06:42:03;;;;;;;85.95;36.92;;;3.50;81.60;;;;;;5053958;28;20037;-67
2023/03/02 06:44:28;;;;;;;63.95;36.63;;;3.60;81.00;;;;;;5054368;28;20520;-67
2023/03/02 06:46:54;;;;;;;65.93;37.50;;;3.60;80.40;;;;;;5053236;28;20024;-67
2023/03/02 06:49:20;;;;;;;65.07;36.42;;;3.60;80.50;;;;;;5054585;28;20036;-67
2023/03/02 06:51:45;;;;;;;67.40;35.53;;;3.60;79.40;;;;;;5041692;28;20350;-68
2023/03/02 06:54:11;;;;;;;62.33;34.97;;;3.70;78.20;;;;;;5034298;28;20046;-67
2023/03/02 06:56:37;;;;;;;64.35;36.92;;;3.60;77.40;;;;;;5034633;28;20354;-67
2023/03/02 06:59:02;;;;;;;66.45;36.17;;;3.70;77.50;;;;;;5035110;28;20084;-67
2023/03/02 07:01:34;;;;;;;62.58;35.58;;;3.70;78.30;;;;;;5049977;28;20029;-67
2023/03/02 07:04:00;;;;;;;67.35;37.70;;;3.80;78.40;;;;;;5053476;28;20424;-67
2023/03/02 07:06:26;;;;;;;70.45;37.03;;;3.80;78.30;;;;;;5054336;28;20032;-67
2023/03/02 07:08:52;;;;;;;69.32;37.50;;;3.90;78.20;;;;;;5053608;28;20028;-67
2023/03/02 07:11:17;;;;;;;66.13;36.00;;;4.00;77.70;;;;;;5054284;28;20060;-67
2023/03/02 07:13:43;;;;;;;65.53;36.63;;;4.00;77.20;;;;;;5050213;28;20098;-68
2023/03/02 07:16:12;;;;;;;66.22;35.08;;;4.10;76.30;;;;;;5047384;28;20025;-68
2023/03/02 07:18:38;;;;;;;65.15;36.45;;;4.10;75.80;;;;;;5043031;28;20424;-69
2023/03/02 07:21:05;;;;;;;62.50;36.10;;;4.20;75.70;;;;;;5042034;28;20393;-68
2023/03/02 07:23:31;;;;;;;63.85;34.67;;;4.20;75.80;;;;;;5042704;28;20096;-68
2023/03/02 07:25:57;;;;;;;68.35;36.10;;;4.30;75.50;;;;;;5042649;28;20017;-68
2023/03/02 07:28:24;;;;;;;70.25;36.53;;;4.30;75.00;;;;;;5043557;28;20035;-68
2023/03/02 07:30:51;;;;;;;69.60;37.33;;;4.30;74.40;;;;;;5043229;28;20025;-68
2023/03/02 07:33:17;;;;;;;65.60;37.95;;;4.30;74.60;;;;;;5044005;28;20037;-68
2023/03/02 07:35:43;;;;;;;68.22;38.50;;;4.40;74.90;;;;;;5024460;28;20056;-69
2023/03/02 07:38:08;;;;;;;71.63;38.05;;;4.40;75.10;;;;;;5041191;28;20037;-68
2023/03/02 07:40:34;;;;;;;62.80;35.17;;;4.60;75.00;;;;;;5040759;28;20044;-68
2023/03/02 07:43:00;;;;;;;64.03;35.70;;;4.70;74.40;;;;;;5043310;28;20497;-66
2023/03/02 07:45:25;;;;;;;62.72;34.10;;;4.90;72.80;;;;;;5043334;28;20116;-66
2023/03/02 07:47:51;;;;;;;68.10;35.83;;;5.10;70.90;;;;;;5040880;28;20450;-67
2023/03/02 07:50:17;;;;;;;64.07;35.47;;;5.30;69.90;;;;;;5042316;28;20025;-67
2023/03/02 07:52:43;;;;;;;61.60;35.47;;;5.50;68.70;;;;;;5042463;28;20030;-67
2023/03/02 07:55:09;;;;;;;66.60;36.35;;;5.70;68.00;;;;;;5041001;28;20462;-66
2023/03/02 07:57:34;;;;;;;69.50;37.72;;;5.80;67.20;;;;;;5031739;28;20047;-66
2023/03/02 08:00:00;;;;;;;68.22;36.45;;;6.00;67.30;;;;;;5049440;28;20465;-66
2023/03/02 08:02:27;;;;;;;67.70;36.13;;;6.20;67.20;;;;;;5040873;28;20075;-68
2023/03/02 08:04:52;;;;;;;62.55;35.72;;;6.50;67.60;;;;;;5041152;28;20033;-68
2023/03/02 08:07:18;;;;;;;67.63;36.40;;;6.70;67.30;;;;;;5042742;28;20018;-68
2023/03/02 08:09:44;;;;;;;65.72;34.92;;;6.90;65.90;;;;;;5040461;28;20461;-69
2023/03/02 08:12:09;;;;;;;62.17;35.30;;;7.10;63.70;;;;;;5035503;28;20104;-67
2023/03/02 08:14:36;;;;;;;65.25;36.35;;;7.30;63.70;;;;;;5041120;28;20448;-67
2023/03/02 08:17:04;;;;;;;66.07;35.45;;;7.40;62.80;;;;;;5041451;28;20024;-68
2023/03/02 08:19:29;;;;;;;71.43;36.63;;;7.60;61.80;;;;;;5024543;28;20043;-69
2023/03/02 08:21:55;;;;;;;64.53;34.10;;;7.80;62.90;;;;;;5020126;28;20381;-68
2023/03/02 08:24:21;;;;;;;64.30;35.65;;;8.00;61.40;;;;;;5032489;28;20033;-68
2023/03/02 08:26:46;;;;;;;64.32;35.95;;;8.20;61.00;;;;;;5032456;28;20052;-68
2023/03/02 08:29:12;;;;;;;63.83;35.72;;;8.40;59.00;;;;;;5032589;28;20295;-68
2023/03/02 08:31:37;;;;;;;65.35;34.75;;;8.60;58.80;;;;;;5035825;28;20013;-67
2023/03/02 08:34:04;;;;;;;58.28;33.40;;;8.80;58.50;;;;;;5051917;28;20033;-68
2023/03/02 08:36:30;;;;;;;63.22;35.90;;;9.10;59.00;;;;;;5051034;28;20475;-68
2023/03/02 08:38:55;;;;;;;56.85;33.33;;;9.30;58.70;;;;;;5032104;28;20046;-67
2023/03/02 08:41:22;;;;;;;63.25;33.58;;;9.50;58.00;;;;;;5032598;28;20079;-67
2023/03/02 08:43:48;;;;;;;66.47;35.17;;;9.70;57.80;;;;;;5031963;28;20040;-67
2023/03/02 08:46:17;;;;;;;60.67;35.88;;;9.90;57.20;;;;;;5032958;28;20096;-67
2023/03/02 08:48:42;;;;;;;61.90;33.58;;;10.00;56.00;;;;;;5032678;28;20029;-67
2023/03/02 08:51:15;;;;;;;54.40;32.88;;;10.10;54.70;;;;;;5031864;28;20026;-67
2023/03/02 08:53:44;;;;;;;55.25;34.22;;;10.20;54.70;;;;;;5032698;28;20033;-67
2023/03/02 08:56:30;;;;;;;60.25;35.40;;;10.20;54.10;;;;;;5014480;28;20549;-67
2023/03/02 08:59:01;;;;;;;57.80;34.35;;;10.20;53.40;;;;;;5032224;28;20026;-67
2023/03/02 09:01:29;;;;;;;64.30;34.63;;;10.30;53.90;;;;;;5014944;28;20022;-67
2023/03/02 09:03:58;;;;;;;56.78;33.65;;;10.30;53.40;;;;;;5031911;28;20064;-68
2023/03/02 09:06:24;;;;;;;61.03;35.20;;;10.30;53.10;;;;;;5032582;28;20026;-67
2023/03/02 09:08:50;;;;;;;59.83;33.22;;;10.40;53.10;;;;;;5014550;28;20078;-68
2023/03/02 09:11:16;;;;;;;55.28;33.85;;;10.50;52.40;;;;;;5049193;28;20029;-67
2023/03/02 09:13:41;;;;;;;64.32;35.83;;;10.50;52.60;;;;;;5051998;28;20048;-67
2023/03/02 09:16:08;;;;;;;59.35;34.28;;;10.60;52.30;;;;;;5051740;28;20029;-67
2023/03/02 09:18:34;;;;;;;55.75;31.02;;;10.60;52.30;;;;;;5034344;28;20032;-67
2023/03/02 09:21:00;;;;;;;53.28;32.00;;;10.70;52.10;;;;;;5051912;28;20021;-67
2023/03/02 09:23:26;;;;;;;53.15;32.40;;;10.70;52.40;;;;;;5052453;28;20036;-67
2023/03/02 09:25:52;;;;;;;51.00;31.60;;;10.70;52.40;;;;;;5033983;28;20464;-67
2023/03/02 09:28:20;;;;;;;55.40;33.30;;;10.90;52.20;;;;;;5052347;28;20032;-67
2023/03/02 09:30:52;;;;;;;53.22;31.60;;;10.90;52.30;;;;;;5052246;28;20036;-67
2023/03/02 09:33:19;;;;;;;64.72;34.97;;;11.00;51.90;;;;;;5052028;28;20033;-67
2023/03/02 09:35:46;;;;;;;48.67;30.38;;;11.10;52.00;;;;;;5052334;28;20033;-67
2023/03/02 09:38:15;;;;;;;50.55;29.67;;;11.20;51.00;;;;;;5044105;28;20046;-67
2023/03/02 09:40:52;;;;;;;59.08;30.02;;;11.20;50.80;;;;;;5032049;28;20494;-67
2023/03/02 09:43:21;;;;;;;54.45;32.15;;;11.20;51.80;;;;;;5032313;28;20032;-67
2023/03/02 09:46:08;;;;;;;56.78;31.05;;;11.30;51.60;;;;;;5031733;28;20444;-67
2023/03/02 09:48:45;;;;;;;50.20;31.17;;;11.50;51.30;;;;;;5032228;28;20028;-67
2023/03/02 09:51:12;;;;;;;49.28;31.63;;;11.60;50.70;;;;;;5031864;28;20061;-67
2023/03/02 09:54:06;;;;;;;48.50;31.38;;;11.60;50.40;;;;;;5032068;28;20056;-67
2023/03/02 09:56:37;;;;;;;52.60;29.98;;;11.70;51.10;;;;;;5026818;28;20454;-66
2023/03/02 09:59:21;;;;;;;54.33;31.90;;;11.80;51.10;;;;;;5031344;28;20461;-67
2023/03/02 10:01:56;;;;;;;54.10;32.58;;;11.90;50.50;;;;;;5034908;28;20063;-67
2023/03/02 10:04:28;;;;;;;53.03;32.63;;;12.00;50.30;;;;;;5051605;28;20112;-67
2023/03/02 10:07:22;;;;;;;58.92;31.95;;;12.00;49.80;;;;;;5051411;28;20040;-67
2023/03/02 10:09:48;;;;;;;57.42;31.77;;;12.10;51.00;;;;;;5051457;28;20356;-67
2023/03/02 10:12:17;;;;;;;52.40;30.42;;;12.20;49.30;;;;;;5051073;28;20078;-67
2023/03/02 10:15:03;;;;;;;52.28;30.55;;;12.20;49.30;;;;;;5030788;28;20037;-67
2023/03/02 10:17:56;;;;;;;50.83;31.13;;;12.20;49.60;;;;;;5031430;28;20485;-67
2023/03/02 10:20:36;;;;;;;52.78;31.73;;;12.30;50.00;;;;;;5032020;28;20026;-67
2023/03/02 10:23:31;;;;;;;52.53;31.65;;;12.20;49.10;;;;;;5015642;28;20425;-67
2023/03/02 10:26:04;;;;;;;55.35;32.40;;;12.10;49.40;;;;;;5008779;28;20114;-67
2023/03/02 10:28:37;;;;;;;46.17;30.73;;;12.10;50.10;;;;;;5035250;28;20036;-67
2023/03/02 10:31:15;;;;;;;60.17;29.17;;;12.30;49.70;;;;;;5034657;28;20022;-67
2023/03/02 10:33:41;;;;;;;49.75;30.35;;;12.30;49.60;;;;;;5034947;28;20053;-67
2023/03/02 10:36:21;;;;;;;51.03;29.20;;;12.20;49.70;;;;;;5048824;28;20071;-67
2023/03/02 10:38:47;;;;;;;44.03;27.50;;;12.30;50.20;;;;;;5054374;28;20496;-67
2023/03/02 10:41:34;;;;;;;44.63;27.15;;;12.20;50.60;;;;;;5054262;28;20029;-67
2023/03/02 10:44:21;;;;;;;46.42;27.67;;;12.30;50.50;;;;;;5036499;28;20358;-68
2023/03/02 10:46:47;;;;;;;44.47;27.08;;;12.40;50.20;;;;;;5050900;28;20341;-68
2023/03/02 10:49:33;;;;;;;41.55;25.95;;;12.50;50.80;;;;;;5034090;28;20025;-67
2023/03/02 10:51:59;;;;;;;41.05;26.73;;;12.70;50.50;;;;;;5033903;28;20075;-67
2023/03/02 10:54:27;;;;;;;44.38;27.60;;;12.70;49.80;;;;;;5034265;28;20041;-68
2023/03/02 10:56:56;;;;;;;39.50;26.38;;;12.80;50.60;;;;;;5034474;28;20034;-67
2023/03/02 10:59:25;;;;;;;43.17;26.75;;;12.80;50.10;;;;;;5034390;28;20026;-67
2023/03/02 11:02:15;;;;;;;47.38;26.92;;;12.90;50.30;;;;;;5034409;28;20025;-67
2023/03/02 11:04:41;;;;;;;42.63;27.60;;;13.10;50.70;;;;;;5034402;28;20040;-67
2023/03/02 11:07:16;;;;;;;42.05;25.92;;;13.20;50.00;;;;;;5033827;28;20068;-68
2023/03/02 11:09:42;;;;;;;38.10;26.50;;;13.30;50.00;;;;;;5034137;28;20029;-66
2023/03/02 11:12:16;;;;;;;44.47;27.77;;;13.40;49.70;;;;;;5033623;28;20034;-66
2023/03/02 11:14:42;;;;;;;44.35;26.55;;;13.50;49.50;;;;;;5034077;28;20124;-67
2023/03/02 11:17:35;;;;;;;42.28;24.77;;;13.40;48.60;;;;;;5033803;28;20104;-67
2023/03/02 11:20:02;;;;;;;41.20;27.83;;;13.50;49.40;;;;;;5033768;28;20025;-65
2023/03/02 11:23:08;;;;;;;46.67;27.35;;;13.40;48.70;;;;;;5033806;28;20038;-64
2023/03/02 11:25:42;;;;;;;44.38;27.95;;;13.50;49.30;;;;;;5007818;28;20051;-66
2023/03/02 11:28:34;;;;;;;45.75;29.27;;;13.60;48.90;;;;;;5015767;28;20032;-67
2023/03/02 11:31:04;;;;;;;47.05;28.85;;;13.50;48.70;;;;;;5033636;28;20083;-67
2023/03/02 11:33:36;;;;;;;46.05;27.75;;;13.40;49.00;;;;;;5033482;28;20057;-67
2023/03/02 11:36:13;;;;;;;43.85;27.23;;;13.60;49.20;;;;;;5033496;28;20034;-67
2023/03/02 11:38:51;;;;;;;37.70;24.95;;;13.70;48.70;;;;;;5044801;28;20044;-67
2023/03/02 11:41:30;;;;;;;43.95;26.92;;;13.70;47.20;;;;;;5052999;28;20343;-67
2023/03/02 11:44:00;;;;;;;47.85;26.95;;;13.70;47.90;;;;;;5053147;28;20025;-67
2023/03/02 11:46:31;;;;;;;35.47;23.15;;;13.80;47.40;;;;;;5053196;28;20056;-68
2023/03/02 11:49:01;;;;;;;;;;;13.70;46.80;;;;;;5070972;28;20031;-68
2023/03/02 11:51:36;;;;;;;33.88;22.33;;;13.80;46.90;;;;;;5073522;28;19904;-68
2023/03/02 11:54:21;;;;;;;37.97;24.13;;;13.90;46.20;;;;;;5072843;28;20043;-69
2023/03/02 11:56:47;;;;;;;34.10;21.15;;;13.90;46.80;;;;;;5073186;28;20025;-68
2023/03/02 11:59:18;;;;;;;34.78;22.77;;;14.00;46.50;;;;;;5072887;28;20032;-68
2023/03/02 12:01:48;;;;;;;36.05;23.70;;;14.10;46.30;;;;;;5073309;28;20029;-68
2023/03/02 12:04:35;;;;;;;34.78;20.23;;;14.20;46.70;;;;;;5054951;28;20029;-68
2023/03/02 12:07:15;;;;;;;32.47;21.52;;;14.30;45.90;;;;;;5072803;28;20055;-69
2023/03/02 12:09:41;;;;;;;35.97;22.17;;;14.30;46.00;;;;;;5055142;28;20449;-68
2023/03/02 12:12:33;;;;;;;36.45;23.40;;;14.40;45.00;;;;;;5072469;28;20024;-68
2023/03/02 12:14:59;;;;;;;29.08;18.80;;;14.40;45.50;;;;;;5072924;28;20064;-68
2023/03/02 12:17:25;;;;;;;24.23;16.45;;;14.40;44.60;;;;;;5069474;28;20107;-68
2023/03/02 12:20:08;;;;;;;22.88;15.65;;;14.40;43.60;;;;;;5058945;28;20517;-68
2023/03/02 12:22:35;;;;;;;22.98;14.88;;;14.40;43.80;;;;;;5068341;28;20506;-68
2023/03/02 12:25:17;;;;;;;22.92;15.70;;;14.50;44.00;;;;;;5071558;28;20056;-68
2023/03/02 12:27:45;;;;;;;29.70;18.05;;;14.40;43.20;;;;;;5071987;28;20032;-68
2023/03/02 12:30:23;;;;;;;27.25;17.45;;;14.40;43.20;;;;;;5071131;28;20532;-67
2023/03/02 12:33:16;;;;;;;28.67;17.98;;;14.40;43.30;;;;;;5071827;28;20033;-68
2023/03/02 12:35:42;;;;;;;24.58;15.80;;;14.40;43.00;;;;;;5071519;28;20052;-68
2023/03/02 12:38:29;;;;;;;24.90;15.73;;;14.40;42.20;;;;;;5063943;28;20049;-68
2023/03/02 12:41:24;;;;;;;20.92;14.48;;;14.30;41.80;;;;;;5051446;28;20032;-68
2023/03/02 12:44:17;;;;;;;24.55;15.00;;;14.30;41.70;;;;;;5042333;28;20047;-68
2023/03/02 12:46:47;;;;;;;31.85;18.25;;;14.30;42.40;;;;;;5034198;28;20103;-66
2023/03/02 12:49:16;;;;;;;25.60;16.20;;;14.20;42.40;;;;;;5031436;28;20022;-68
2023/03/02 12:51:48;;;;;;;26.85;17.02;;;14.10;42.40;;;;;;5031615;28;20025;-68